Time;durP1;ratioP1;P1;durP2;ratioP2;P2;SDS_P1;SDS_P2;PMS_P1;PMS_P2;Temp;Humidity;BMP_temperature;BMP_pressure;BME280_temperature;BME280_humidity;BME280_pressure;Samples;Min_cycle;Max_cycle;Signal;HPM_P1;HPM_P2
2022/08/20 00:00:46;;;;;;;10.95;7.32;;;;;;;20.95;100.00;101387.03;5069393;28;20661;-59
2022/08/20 00:03:17;;;;;;;13.20;8.10;;;;;;;21.03;100.00;101383.59;5072705;28;20048;-58
2022/08/20 00:06:02;;;;;;;14.13;9.05;;;;;;;20.97;100.00;101382.41;5071088;28;20067;-58
2022/08/20 00:08:31;;;;;;;12.10;8.18;;;;;;;21.04;100.00;101377.28;5071152;28;20047;-61
2022/08/20 00:11:01;;;;;;;13.13;8.93;;;;;;;21.02;100.00;101376.56;5069487;28;20052;-58
2022/08/20 00:13:32;;;;;;;12.63;8.52;;;;;;;21.03;100.00;101381.75;5073232;28;20139;-60
2022/08/20 00:16:01;;;;;;;12.45;9.05;;;;;;;20.91;100.00;101381.19;5073560;28;20403;-57
2022/08/20 00:18:29;;;;;;;13.90;9.38;;;;;;;20.92;100.00;101382.00;5074198;28;20063;-59
2022/08/20 00:20:59;;;;;;;13.75;8.88;;;;;;;20.98;100.00;101400.09;5073619;28;20076;-58
2022/08/20 00:23:28;;;;;;;14.25;8.57;;;;;;;20.96;100.00;101391.41;5072125;28;20041;-57
2022/08/20 00:25:57;;;;;;;13.25;8.68;;;;;;;20.91;100.00;101386.53;5070993;28;20098;-57
2022/08/20 00:28:25;;;;;;;16.35;8.65;;;;;;;20.87;100.00;101378.97;5071438;28;20049;-58
2022/08/20 00:30:53;;;;;;;12.23;8.20;;;;;;;20.88;100.00;101384.16;5070134;28;20044;-60
2022/08/20 00:33:23;;;;;;;12.73;8.75;;;;;;;20.87;100.00;101385.13;5073173;28;20052;-61
2022/08/20 00:35:55;;;;;;;14.10;8.68;;;;;;;20.82;100.00;101386.59;5072924;28;20056;-60
2022/08/20 00:38:24;;;;;;;11.77;8.25;;;;;;;20.77;100.00;101387.06;5070894;28;20511;-61
2022/08/20 00:40:54;;;;;;;12.45;8.32;;;;;;;20.85;100.00;101386.31;5070908;28;20036;-60
2022/08/20 00:43:32;;;;;;;13.60;8.02;;;;;;;20.88;100.00;101380.66;5073270;28;20053;-60
2022/08/20 00:46:02;;;;;;;11.48;7.57;;;;;;;20.90;100.00;101382.19;5072925;28;20048;-58
2022/08/20 00:48:33;;;;;;;12.82;8.25;;;;;;;20.90;100.00;101374.16;5072810;28;20056;-58
2022/08/20 00:51:06;;;;;;;12.77;8.88;;;;;;;20.81;100.00;101379.59;5071686;28;20051;-58
2022/08/20 00:53:36;;;;;;;10.85;7.90;;;;;;;20.81;100.00;101384.94;5068966;28;20051;-60
2022/08/20 00:56:05;;;;;;;12.93;8.25;;;;;;;20.82;100.00;101390.13;5069816;28;20517;-60
2022/08/20 00:58:36;;;;;;;12.77;8.07;;;;;;;20.82;100.00;101392.81;5071697;28;20055;-61
2022/08/20 01:01:06;;;;;;;12.95;7.75;;;;;;;20.82;100.00;101395.47;5068230;28;20522;-61
2022/08/20 01:03:34;;;;;;;14.88;8.90;;;;;;;20.81;100.00;101391.13;5070768;28;20063;-61
2022/08/20 01:06:03;;;;;;;13.43;8.70;;;;;;;20.82;100.00;101394.63;5071547;28;20682;-58
2022/08/20 01:08:31;;;;;;;14.15;8.88;;;;;;;20.76;100.00;101396.06;5070410;28;20056;-61
2022/08/20 01:11:11;;;;;;;14.20;9.20;;;;;;;20.66;100.00;101389.97;5071028;28;20052;-58
2022/08/20 01:13:41;;;;;;;14.07;9.25;;;;;;;20.59;100.00;101387.88;5072400;28;20526;-58
2022/08/20 01:16:19;;;;;;;14.73;9.30;;;;;;;20.65;100.00;101398.97;5071889;28;20044;-58
2022/08/20 01:18:48;;;;;;;15.63;9.95;;;;;;;20.64;100.00;101390.09;5071820;28;20090;-60
2022/08/20 01:21:21;;;;;;;15.60;10.50;;;;;;;20.64;100.00;101402.63;5069926;28;20040;-58
2022/08/20 01:23:56;;;;;;;16.30;9.85;;;;;;;20.57;100.00;101400.56;5069274;28;20044;-59
2022/08/20 01:26:29;;;;;;;14.98;9.63;;;;;;;20.54;100.00;101403.53;5072777;28;20403;-60
2022/08/20 01:29:01;;;;;;;14.55;10.38;;;;;;;20.48;100.00;101401.47;5072153;28;20119;-58
2022/08/20 01:31:33;;;;;;;17.52;11.32;;;;;;;20.46;100.00;101402.63;5072193;28;20628;-56
2022/08/20 01:34:04;;;;;;;16.13;10.57;;;;;;;20.51;100.00;101401.16;5071922;28;20044;-57
2022/08/20 01:36:37;;;;;;;16.42;10.68;;;;;;;20.47;100.00;101386.44;5072272;28;20064;-57
2022/08/20 01:39:14;;;;;;;16.83;10.18;;;;;;;20.47;100.00;101389.09;5072440;28;20106;-51
2022/08/20 01:41:57;;;;;;;17.73;11.10;;;;;;;20.45;100.00;101388.44;5069323;28;20045;-50
2022/08/20 01:44:25;;;;;;;15.73;10.67;;;;;;;20.44;100.00;101387.56;5069919;28;20530;-54
2022/08/20 01:46:56;;;;;;;15.85;11.48;;;;;;;20.38;100.00;101382.84;5070286;28;20040;-52
2022/08/20 01:49:28;;;;;;;18.27;11.13;;;;;;;20.44;100.00;101384.91;5069844;28;20106;-57
2022/08/20 01:52:00;;;;;;;18.48;11.60;;;;;;;20.48;100.00;101388.13;5069491;28;20051;-57
2022/08/20 01:54:28;;;;;;;;;;;;;;;20.45;100.00;101380.41;5070747;28;20506;-58
2022/08/20 01:57:02;;;;;;;17.58;11.10;;;;;;;20.44;100.00;101381.41;5069113;28;20674;-54
2022/08/20 01:59:30;;;;;;;14.68;9.82;;;;;;;20.37;100.00;101386.50;5069651;28;20053;-55
2022/08/20 02:01:59;;;;;;;14.07;10.30;;;;;;;20.38;100.00;101390.88;5068222;28;20528;-53
2022/08/20 02:04:27;;;;;;;15.52;10.23;;;;;;;20.29;100.00;101391.75;5071001;28;20132;-58
2022/08/20 02:06:57;;;;;;;18.90;11.48;;;;;;;20.41;100.00;101389.69;5072008;28;20505;-58
2022/08/20 02:09:27;;;;;;;15.55;10.20;;;;;;;20.36;100.00;101395.50;5071866;28;20044;-58
2022/08/20 02:11:56;;;;;;;15.85;10.45;;;;;;;20.35;100.00;101387.66;5072645;28;20078;-54
2022/08/20 02:14:26;;;;;;;15.07;10.13;;;;;;;20.27;100.00;101393.72;5073498;28;20095;-58
2022/08/20 02:16:57;;;;;;;15.80;10.25;;;;;;;20.33;100.00;101386.94;5072051;28;20056;-58
2022/08/20 02:19:29;;;;;;;13.57;10.02;;;;;;;20.32;100.00;101391.44;5074537;28;20106;-58
2022/08/20 02:22:01;;;;;;;18.13;10.50;;;;;;;20.30;100.00;101393.44;5072852;28;20049;-58
2022/08/20 02:24:30;;;;;;;15.00;10.27;;;;;;;20.26;100.00;101392.06;5073594;28;20131;-58
2022/08/20 02:26:58;;;;;;;14.02;9.68;;;;;;;20.28;100.00;101400.75;5072739;28;20408;-58
2022/08/20 02:29:28;;;;;;;15.90;10.27;;;;;;;20.07;100.00;101401.88;5073043;28;20052;-58
2022/08/20 02:31:56;;;;;;;15.48;10.05;;;;;;;20.11;100.00;101402.41;5071673;28;20052;-59
2022/08/20 02:34:45;;;;;;;15.55;9.77;;;;;;;20.07;100.00;101399.19;5074731;28;20053;-57
2022/08/20 02:37:15;;;;;;;14.10;9.63;;;;;;;20.09;100.00;101407.03;5075259;28;20101;-55
2022/08/20 02:39:43;;;;;;;15.27;9.23;;;;;;;20.06;100.00;101404.69;5074442;28;20055;-56
2022/08/20 02:42:12;;;;;;;15.95;10.40;;;;;;;20.02;100.00;101401.47;5071465;28;20068;-57
2022/08/20 02:44:42;;;;;;;14.55;10.88;;;;;;;19.98;100.00;101410.75;5074603;28;20040;-57
2022/08/20 02:47:10;;;;;;;14.50;10.52;;;;;;;19.94;100.00;101414.72;5073774;28;20048;-59
2022/08/20 02:49:38;;;;;;;13.20;9.25;;;;;;;20.03;100.00;101413.81;5072599;28;20103;-54
2022/08/20 02:52:07;;;;;;;15.80;9.35;;;;;;;19.97;100.00;101414.41;5072762;28;20082;-56
2022/08/20 02:54:35;;;;;;;14.57;9.32;;;;;;;20.00;100.00;101408.78;5073204;28;20059;-56
2022/08/20 02:57:03;;;;;;;14.38;9.30;;;;;;;19.98;100.00;101412.59;5074803;28;20055;-56
2022/08/20 02:59:32;;;;;;;12.80;8.77;;;;;;;19.93;100.00;101405.00;5074758;28;20059;-57
2022/08/20 03:02:01;;;;;;;15.18;9.10;;;;;;;19.93;100.00;101394.34;5074609;28;20053;-57
2022/08/20 03:04:30;;;;;;;13.65;8.90;;;;;;;19.80;100.00;101397.34;5074607;28;20049;-58
2022/08/20 03:06:59;;;;;;;12.75;8.60;;;;;;;19.80;100.00;101393.84;5071345;28;20082;-58
2022/08/20 03:09:27;;;;;;;15.35;8.57;;;;;;;19.85;100.00;101396.91;5072683;28;20049;-55
2022/08/20 03:11:55;;;;;;;15.07;9.07;;;;;;;19.74;100.00;101398.75;5071522;28;20561;-56
2022/08/20 03:14:24;;;;;;;12.60;8.10;;;;;;;19.71;100.00;101395.53;5072408;28;20045;-59
2022/08/20 03:16:52;;;;;;;13.88;8.88;;;;;;;19.83;100.00;101404.22;5070560;28;20048;-59
2022/08/20 03:19:21;;;;;;;13.85;8.80;;;;;;;19.85;100.00;101402.25;5072422;28;20106;-55
2022/08/20 03:21:50;;;;;;;11.93;8.43;;;;;;;19.74;100.00;101396.09;5072798;28;20048;-59
2022/08/20 03:24:18;;;;;;;13.60;7.78;;;;;;;19.80;100.00;101397.34;5072438;28;20139;-59
2022/08/20 03:26:46;;;;;;;11.45;7.80;;;;;;;19.74;100.00;101393.44;5071489;28;20056;-59
2022/08/20 03:29:14;;;;;;;13.18;8.10;;;;;;;19.69;100.00;101397.53;5071754;28;20045;-57
2022/08/20 03:31:42;;;;;;;11.98;7.68;;;;;;;19.69;100.00;101390.34;5073325;28;20114;-56
2022/08/20 03:34:10;;;;;;;15.48;8.75;;;;;;;19.64;100.00;101400.63;5071623;28;20136;-55
2022/08/20 03:36:40;;;;;;;12.70;8.25;;;;;;;19.64;100.00;101410.44;5071887;28;20054;-56
2022/08/20 03:39:11;;;;;;;10.93;7.05;;;;;;;19.76;100.00;101403.94;5071748;28;20053;-56
2022/08/20 03:41:40;;;;;;;11.23;8.07;;;;;;;19.65;100.00;101404.97;5070961;28;20048;-56
2022/08/20 03:44:08;;;;;;;13.30;8.18;;;;;;;19.63;100.00;101401.59;5071475;28;20090;-55
2022/08/20 03:46:37;;;;;;;11.50;8.32;;;;;;;19.64;100.00;101408.63;5070328;28;20057;-59
2022/08/20 03:49:06;;;;;;;14.38;8.82;;;;;;;19.58;100.00;101403.88;5071784;28;20438;-59
2022/08/20 03:51:34;;;;;;;11.65;8.20;;;;;;;19.66;100.00;101390.66;5071597;28;20045;-58
2022/08/20 03:54:23;;;;;;;13.90;8.48;;;;;;;19.59;100.00;101402.88;5074242;28;20519;-56
2022/08/20 03:56:59;;;;;;;16.20;8.55;;;;;;;19.65;100.00;101407.63;5074569;28;20056;-57
2022/08/20 03:59:31;;;;;;;14.88;9.00;;;;;;;19.57;100.00;101411.03;5074708;28;20094;-57
2022/08/20 04:02:00;;;;;;;13.43;9.05;;;;;;;19.41;100.00;101413.47;5073854;28;20044;-59
2022/08/20 04:04:29;;;;;;;13.23;8.52;;;;;;;19.40;100.00;101414.44;5073738;28;20073;-58
2022/08/20 04:06:57;;;;;;;10.60;7.55;;;;;;;19.39;100.00;101412.78;5070312;28;20072;-59
2022/08/20 04:09:27;;;;;;;13.52;9.00;;;;;;;19.54;100.00;101418.50;5072289;28;20098;-57
2022/08/20 04:11:57;;;;;;;13.32;9.00;;;;;;;19.55;100.00;101414.81;5072134;28;20045;-59
2022/08/20 04:14:25;;;;;;;12.10;9.13;;;;;;;19.48;100.00;101425.22;5071431;28;20040;-53
2022/08/20 04:16:56;;;;;;;12.68;8.65;;;;;;;19.49;100.00;101421.56;5069859;28;20098;-56
2022/08/20 04:19:24;;;;;;;14.25;9.27;;;;;;;19.51;100.00;101427.63;5073510;28;20499;-59
2022/08/20 04:21:52;;;;;;;15.73;9.35;;;;;;;19.52;100.00;101420.44;5073143;28;20501;-55
2022/08/20 04:24:20;;;;;;;14.00;8.88;;;;;;;19.61;100.00;101424.09;5071325;28;20135;-58
2022/08/20 04:27:01;;;;;;;12.50;8.05;;;;;;;19.65;100.00;101420.97;5070494;28;20088;-52
2022/08/20 04:29:30;;;;;;;13.30;8.70;;;;;;;19.59;100.00;101421.53;5071555;28;20106;-58
2022/08/20 04:32:01;;;;;;;11.52;8.77;;;;;;;19.47;100.00;101428.91;5069982;28;20055;-58
2022/08/20 04:34:33;;;;;;;13.55;9.00;;;;;;;19.34;100.00;101429.19;5071072;28;20084;-55
2022/08/20 04:37:02;;;;;;;14.25;9.20;;;;;;;19.29;100.00;101433.28;5069860;28;20052;-59
2022/08/20 04:39:30;;;;;;;12.32;8.63;;;;;;;19.16;100.00;101441.59;5071408;28;21292;-59
2022/08/20 04:42:03;;;;;;;14.18;9.43;;;;;;;19.25;100.00;101444.22;5069606;28;20048;-57
2022/08/20 04:44:31;;;;;;;14.13;8.57;;;;;;;19.38;100.00;101435.09;5072493;28;20052;-59
2022/08/20 04:47:00;;;;;;;12.23;9.18;;;;;;;19.32;100.00;101439.16;5071786;28;20040;-59
2022/08/20 04:49:28;;;;;;;12.75;9.07;;;;;;;19.37;100.00;101444.06;5068808;28;20052;-59
2022/08/20 04:51:57;;;;;;;14.25;9.85;;;;;;;19.47;100.00;101446.72;5071533;28;20072;-60
2022/08/20 04:54:25;;;;;;;13.50;8.80;;;;;;;19.55;100.00;101437.03;5070691;28;20048;-60
2022/08/20 04:56:53;;;;;;;13.05;9.15;;;;;;;19.51;100.00;101445.44;5068106;28;20048;-56
2022/08/20 04:59:22;;;;;;;12.98;9.95;;;;;;;19.45;100.00;101449.53;5070396;28;20106;-59
2022/08/20 05:01:50;;;;;;;13.98;9.20;;;;;;;19.48;100.00;101448.41;5068220;28;20502;-60
2022/08/20 05:04:19;;;;;;;15.38;9.30;;;;;;;19.45;100.00;101456.69;5071274;28;20045;-58
2022/08/20 05:06:48;;;;;;;11.88;8.48;;;;;;;19.54;100.00;101463.84;5072261;28;20079;-58
2022/08/20 05:09:16;;;;;;;15.70;9.45;;;;;;;19.47;100.00;101460.03;5069857;28;20056;-60
2022/08/20 05:11:44;;;;;;;15.25;8.88;;;;;;;19.43;100.00;101467.50;5067950;28;20097;-59
2022/08/20 05:14:12;;;;;;;13.13;9.40;;;;;;;19.40;100.00;101476.63;5069533;28;20041;-57
2022/08/20 05:16:42;;;;;;;13.20;9.00;;;;;;;19.38;100.00;101470.59;5067876;28;20078;-56
2022/08/20 05:19:12;;;;;;;13.98;9.57;;;;;;;19.34;100.00;101481.69;5069430;28;20604;-56
2022/08/20 05:21:41;;;;;;;12.65;8.75;;;;;;;19.32;100.00;101480.97;5069281;28;20046;-57
2022/08/20 05:24:10;;;;;;;15.05;8.95;;;;;;;19.31;100.00;101479.31;5069900;28;20040;-55
2022/08/20 05:26:39;;;;;;;12.57;8.07;;;;;;;19.41;100.00;101475.66;5069638;28;20044;-59
2022/08/20 05:29:07;;;;;;;11.70;6.95;;;;;;;19.30;100.00;101475.78;5069941;28;20044;-57
2022/08/20 05:31:37;;;;;;;10.82;7.07;;;;;;;19.30;100.00;101489.13;5070017;28;20079;-55
2022/08/20 05:34:08;;;;;;;13.13;8.05;;;;;;;19.30;100.00;101482.97;5070750;28;20080;-56
2022/08/20 05:36:38;;;;;;;;;;;;;;;19.34;100.00;101487.84;5073163;28;20052;-59
2022/08/20 05:39:07;;;;;;;10.77;5.88;;;;;;;19.31;100.00;101490.81;5072494;28;19920;-59
2022/08/20 05:41:36;;;;;;;13.38;5.82;;;;;;;19.32;100.00;101484.50;5071160;28;20380;-59
2022/08/20 05:44:08;;;;;;;10.85;5.63;;;;;;;19.32;100.00;101489.84;5072112;28;20064;-58
2022/08/20 05:46:40;;;;;;;13.30;6.32;;;;;;;19.30;100.00;101483.78;5072550;28;20040;-57
2022/08/20 05:49:11;;;;;;;9.50;5.88;;;;;;;19.18;100.00;101487.59;5069699;28;20044;-56
2022/08/20 05:51:39;;;;;;;10.52;5.45;;;;;;;19.21;100.00;101493.50;5070433;28;20099;-58
2022/08/20 05:54:07;;;;;;;10.80;6.07;;;;;;;19.20;100.00;101488.31;5069786;28;20068;-59
2022/08/20 05:56:36;;;;;;;9.90;5.93;;;;;;;19.24;100.00;101498.53;5069531;28;20075;-55
2022/08/20 05:59:06;;;;;;;16.00;5.57;;;;;;;19.24;100.00;101492.38;5069488;28;20431;-60
2022/08/20 06:01:37;;;;;;;10.25;5.40;;;;;;;19.23;100.00;101499.50;5068086;28;20044;-59
2022/08/20 06:06:55;;;;;;;8.52;4.50;;;;;;;19.38;100.00;101497.25;5069470;28;20048;-56
2022/08/20 06:09:24;;;;;;;10.70;5.75;;;;;;;19.32;100.00;101500.50;5070040;28;20048;-61
2022/08/20 06:12:01;;;;;;;11.05;4.53;;;;;;;19.31;100.00;101497.97;5068840;28;20694;-56
2022/08/20 06:14:30;;;;;;;10.07;4.50;;;;;;;19.29;100.00;101495.44;5070327;28;20055;-60
2022/08/20 06:17:07;;;;;;;9.23;4.35;;;;;;;19.35;100.00;101502.88;5071958;28;20052;-59
2022/08/20 06:19:36;;;;;;;10.73;4.70;;;;;;;19.33;100.00;101498.66;5070316;28;20051;-59
2022/08/20 06:22:07;;;;;;;9.68;4.57;;;;;;;19.31;100.00;101496.16;5069108;28;20094;-59
2022/08/20 06:24:48;;;;;;;11.95;4.50;;;;;;;19.21;100.00;101496.16;5070087;28;20051;-56
2022/08/20 06:27:16;;;;;;;8.65;3.85;;;;;;;19.11;100.00;101487.31;5070541;28;20049;-58
2022/08/20 06:29:45;;;;;;;7.15;3.88;;;;;;;19.07;100.00;101492.09;5068133;28;20055;-56
2022/08/20 06:32:16;;;;;;;9.18;3.92;;;;;;;19.09;100.00;101498.13;5068412;28;20071;-57
2022/08/20 06:34:44;;;;;;;8.90;4.57;;;;;;;19.17;100.00;101497.41;5069611;28;20071;-56
2022/08/20 06:37:22;;;;;;;6.47;3.88;;;;;;;19.24;100.00;101503.03;5069381;28;20052;-58
2022/08/20 06:40:01;;;;;;;8.05;3.90;;;;;;;19.22;100.00;101500.50;5069345;28;20338;-59
2022/08/20 06:42:29;;;;;;;7.73;4.13;;;;;;;19.25;100.00;101505.56;5069557;28;20037;-59
2022/08/20 06:44:59;;;;;;;11.38;4.47;;;;;;;19.16;100.00;101508.22;5070866;28;20499;-57
2022/08/20 06:47:27;;;;;;;7.47;3.75;;;;;;;19.26;100.00;101509.06;5071950;28;20113;-56
2022/08/20 06:49:55;;;;;;;8.13;3.55;;;;;;;19.30;100.00;101513.13;5070644;28;20080;-60
2022/08/20 06:52:25;;;;;;;7.68;3.47;;;;;;;19.24;100.00;101509.19;5069133;28;20047;-61
2022/08/20 06:55:16;;;;;;;9.63;3.33;;;;;;;19.31;100.00;101511.31;5067418;28;20052;-58
2022/08/20 06:57:46;;;;;;;7.72;3.15;;;;;;;19.34;100.00;101509.19;5069340;28;20052;-60
2022/08/20 07:00:17;;;;;;;8.68;3.10;;;;;;;19.44;100.00;101511.84;5074465;28;20040;-59
2022/08/20 07:02:46;;;;;;;10.57;4.20;;;;;;;19.50;100.00;101513.97;5075149;28;20055;-57
2022/08/20 07:05:15;;;;;;;10.50;3.90;;;;;;;19.72;100.00;101511.97;5073578;28;20067;-59
2022/08/20 07:07:48;;;;;;;8.18;3.60;;;;;;;19.76;100.00;101503.50;5072770;28;20123;-57
2022/08/20 07:10:19;;;;;;;9.70;4.35;;;;;;;19.92;100.00;101510.94;5072070;28;20037;-59
2022/08/20 07:12:49;;;;;;;10.05;4.45;;;;;;;20.15;100.00;101509.75;5073441;28;20392;-59
2022/08/20 07:15:19;;;;;;;10.73;4.38;;;;;;;20.17;100.00;101505.09;5074610;28;20109;-60
2022/08/20 07:17:52;;;;;;;9.68;4.45;;;;;;;20.26;100.00;101505.06;5074932;28;20059;-61
2022/08/20 07:20:28;;;;;;;13.43;4.95;;;;;;;20.33;100.00;101499.97;5074892;28;20407;-61
2022/08/20 07:22:57;;;;;;;10.30;4.63;;;;;;;20.42;100.00;101498.22;5074677;28;20057;-61
2022/08/20 07:25:25;;;;;;;8.68;4.32;;;;;;;20.60;100.00;101501.78;5073255;28;20127;-61
2022/08/20 07:27:59;;;;;;;11.48;4.60;;;;;;;20.75;100.00;101509.31;5072029;28;20396;-59
2022/08/20 07:33:24;;;;;;;7.90;2.88;;;;;;;20.90;100.00;101514.97;5071797;28;20052;-61
2022/08/20 07:35:55;;;;;;;10.43;3.90;;;;;;;20.99;100.00;101519.41;5071563;28;20144;-59
2022/08/20 07:38:27;;;;;;;9.00;3.22;;;;;;;21.13;100.00;101530.56;5071584;28;20052;-63
2022/08/20 07:40:58;;;;;;;8.93;3.65;;;;;;;21.25;100.00;101532.84;5070953;28;20098;-62
2022/08/20 07:43:27;;;;;;;9.68;3.92;;;;;;;21.41;100.00;101531.34;5071389;28;20081;-62
2022/08/20 07:45:59;;;;;;;10.85;3.42;;;;;;;21.52;100.00;101530.25;5069900;28;20075;-59
2022/08/20 07:48:29;;;;;;;10.65;3.80;;;;;;;21.66;99.79;101539.56;5071936;28;20049;-63
2022/08/20 07:51:02;;;;;;;9.30;3.50;;;;;;;21.73;96.49;101530.78;5073910;28;20558;-63
2022/08/20 07:53:33;;;;;;;8.50;3.35;;;;;;;21.86;96.88;101535.69;5073984;28;20483;-59
2022/08/20 07:56:05;;;;;;;8.90;2.40;;;;;;;21.90;93.18;101542.41;5070744;28;20040;-64
2022/08/20 07:58:37;;;;;;;8.88;2.72;;;;;;;22.09;92.68;101529.81;5069998;28;20053;-61
2022/08/20 08:01:06;;;;;;;9.80;2.75;;;;;;;22.20;90.61;101529.53;5069684;28;20071;-59
2022/08/20 08:03:35;;;;;;;7.78;2.65;;;;;;;22.38;89.39;101534.00;5070674;28;20048;-60
2022/08/20 08:06:19;;;;;;;8.30;2.80;;;;;;;22.51;87.35;101533.53;5070900;28;20056;-64
2022/08/20 08:09:04;;;;;;;7.93;2.25;;;;;;;22.64;83.13;101535.75;5073625;28;20514;-60
2022/08/20 08:11:34;;;;;;;9.88;2.08;;;;;;;22.75;85.47;101540.81;5073998;28;20055;-65
2022/08/20 08:14:05;;;;;;;11.38;3.05;;;;;;;22.87;82.66;101547.53;5073510;28;20037;-64
2022/08/20 08:16:34;;;;;;;9.10;2.65;;;;;;;23.02;79.27;101539.69;5073411;28;20056;-59
2022/08/20 08:19:05;;;;;;;8.43;2.55;;;;;;;23.24;81.54;101546.28;5072857;28;20052;-65
2022/08/20 08:21:34;;;;;;;8.87;2.60;;;;;;;23.36;80.62;101549.50;5071227;28;20068;-60
2022/08/20 08:24:04;;;;;;;11.10;2.65;;;;;;;23.42;79.37;101543.47;5070328;28;20060;-66
2022/08/20 08:26:32;;;;;;;8.30;2.35;;;;;;;23.51;78.74;101540.78;5072338;28;20384;-59
2022/08/20 08:29:00;;;;;;;8.48;2.60;;;;;;;23.66;82.36;101544.44;5073039;28;20064;-64
2022/08/20 08:31:28;;;;;;;8.50;2.35;;;;;;;23.92;81.22;101554.16;5067510;28;20075;-66
2022/08/20 08:33:56;;;;;;;8.82;2.75;;;;;;;23.97;78.57;101549.13;5070080;28;20052;-66
2022/08/20 08:36:26;;;;;;;14.25;2.78;;;;;;;24.23;80.37;101548.06;5071851;28;20080;-61
2022/08/20 08:38:55;;;;;;;7.53;2.30;;;;;;;24.37;77.75;101547.31;5070471;28;20549;-66
2022/08/20 08:41:30;;;;;;;10.52;2.75;;;;;;;24.30;72.18;101551.72;5072074;28;20078;-66
2022/08/20 08:44:06;;;;;;;10.73;2.75;;;;;;;24.58;72.65;101562.88;5072586;28;20049;-59
2022/08/20 08:46:40;;;;;;;7.43;2.40;;;;;;;24.90;73.59;101560.19;5072716;28;20472;-66
2022/08/20 08:49:12;;;;;;;9.82;2.10;;;;;;;24.96;67.16;101551.41;5072973;28;20048;-66
2022/08/20 08:51:45;;;;;;;9.10;2.23;;;;;;;25.18;66.13;101557.81;5071010;28;20040;-60
2022/08/20 08:54:15;;;;;;;;;;;;;;;25.44;68.06;101559.31;5070697;28;20472;-60
2022/08/20 08:56:45;;;;;;;8.40;2.97;;;;;;;25.36;67.63;101565.63;5072869;28;20406;-67
2022/08/20 08:59:18;;;;;;;9.48;2.75;;;;;;;25.50;69.24;101558.59;5071382;28;20052;-59
2022/08/20 09:01:49;;;;;;;8.52;2.67;;;;;;;25.58;70.46;101563.09;5068362;28;20562;-60
2022/08/20 09:04:29;;;;;;;8.13;2.50;;;;;;;25.54;61.15;101564.47;5070207;28;20110;-59
2022/08/20 09:06:57;;;;;;;9.30;2.58;;;;;;;25.76;64.03;101563.56;5069765;28;20048;-58
2022/08/20 09:09:29;;;;;;;9.45;2.55;;;;;;;25.44;64.10;101557.47;5069821;28;20556;-68
2022/08/20 09:12:06;;;;;;;9.43;2.35;;;;;;;25.77;65.24;101562.56;5069201;28;20056;-69
2022/08/20 09:14:34;;;;;;;9.23;2.42;;;;;;;25.74;62.18;101557.56;5069532;28;20056;-68
2022/08/20 09:17:03;;;;;;;8.70;2.22;;;;;;;25.86;63.63;101562.47;5071685;28;20454;-68
2022/08/20 09:19:31;;;;;;;9.80;2.95;;;;;;;25.99;59.54;101565.38;5072220;28;20040;-68
2022/08/20 09:22:07;;;;;;;8.27;2.17;;;;;;;26.24;60.64;101565.13;5067626;28;20044;-60
2022/08/20 09:24:35;;;;;;;8.60;2.10;;;;;;;26.26;56.61;101568.47;5069334;28;20098;-59
2022/08/20 09:27:05;;;;;;;10.68;2.17;;;;;;;26.31;56.91;101571.44;5069266;28;20052;-68
2022/08/20 09:29:33;;;;;;;8.07;1.77;;;;;;;26.46;58.01;101566.88;5068844;28;20114;-60
2022/08/20 09:32:06;;;;;;;8.40;1.98;;;;;;;26.75;56.98;101565.19;5068661;28;20522;-59
2022/08/20 09:34:37;;;;;;;8.73;1.98;;;;;;;26.84;55.16;101565.06;5069274;28;20061;-60
2022/08/20 09:37:06;;;;;;;8.55;1.98;;;;;;;26.65;52.38;101570.00;5069255;28;20048;-59
2022/08/20 09:39:34;;;;;;;8.18;1.67;;;;;;;26.96;53.67;101568.94;5069074;28;20059;-68
2022/08/20 09:42:11;;;;;;;9.27;1.50;;;;;;;27.28;52.57;101564.91;5064543;28;20095;-59
2022/08/20 09:44:41;;;;;;;6.80;1.95;;;;;;;27.36;52.22;101565.78;5069260;28;20049;-58
2022/08/20 09:47:09;;;;;;;9.27;2.17;;;;;;;27.29;48.66;101557.63;5072144;28;20375;-67
2022/08/20 09:49:40;;;;;;;9.48;2.20;;;;;;;27.13;47.06;101561.41;5072251;28;20376;-59
2022/08/20 09:52:10;;;;;;;9.25;2.03;;;;;;;27.51;47.90;101554.94;5071854;28;20054;-68
2022/08/20 09:54:40;;;;;;;9.48;2.10;;;;;;;27.18;49.00;101553.56;5070379;28;20466;-60
2022/08/20 09:57:15;;;;;;;7.38;1.83;;;;;;;27.46;48.19;101559.06;5070754;28;20442;-69
2022/08/20 09:59:46;;;;;;;8.45;2.40;;;;;;;27.64;46.26;101555.03;5066909;28;20082;-59
2022/08/20 10:02:14;;;;;;;6.88;1.80;;;;;;;27.63;46.84;101547.97;5067875;28;20480;-59
2022/08/20 10:04:42;;;;;;;8.75;2.00;;;;;;;27.86;48.62;101557.69;5070915;28;20445;-59
2022/08/20 10:07:10;;;;;;;10.98;2.13;;;;;;;28.18;49.26;101558.94;5071413;28;20053;-67
2022/08/20 10:09:38;;;;;;;8.82;2.20;;;;;;;27.54;48.10;101559.94;5068151;28;20450;-70
2022/08/20 10:12:07;;;;;;;8.73;2.38;;;;;;;27.66;50.18;101558.38;5069050;28;20045;-59
2022/08/20 10:14:36;;;;;;;10.73;2.72;;;;;;;27.54;46.54;101565.34;5068016;28;20032;-59
2022/08/20 10:17:05;;;;;;;8.57;2.28;;;;;;;27.77;46.67;101565.09;5065118;28;20051;-57
2022/08/20 10:19:33;;;;;;;9.88;2.42;;;;;;;27.99;44.13;101563.16;5070923;28;20128;-59
2022/08/20 10:22:01;;;;;;;7.57;2.08;;;;;;;28.14;45.97;101558.50;5071581;28;20045;-59
2022/08/20 10:24:30;;;;;;;10.63;2.53;;;;;;;28.42;44.38;101560.31;5068327;28;20504;-68
2022/08/20 10:27:00;;;;;;;9.40;2.08;;;;;;;28.73;43.63;101558.16;5069148;28;20045;-67
2022/08/20 10:29:29;;;;;;;8.60;2.40;;;;;;;28.43;44.06;101561.97;5071661;28;20036;-59
2022/08/20 10:32:10;;;;;;;8.57;2.20;;;;;;;28.82;46.27;101565.03;5071629;28;20041;-59
2022/08/20 10:34:39;;;;;;;6.53;1.75;;;;;;;28.67;41.47;101557.09;5069616;28;20061;-69
2022/08/20 10:37:07;;;;;;;7.63;1.90;;;;;;;28.39;41.44;101565.31;5072323;28;20045;-59
2022/08/20 10:39:35;;;;;;;7.82;2.25;;;;;;;28.16;42.62;101574.53;5071753;28;20052;-59
2022/08/20 10:42:04;;;;;;;9.57;2.00;;;;;;;28.21;42.22;101565.81;5073898;28;20113;-59
2022/08/20 10:44:32;;;;;;;9.80;2.15;;;;;;;27.85;42.63;101564.94;5075393;28;20043;-68
2022/08/20 10:47:13;;;;;;;7.80;2.00;;;;;;;27.99;43.72;101569.41;5069631;28;20533;-69
2022/08/20 10:49:41;;;;;;;9.75;2.22;;;;;;;28.32;41.37;101562.56;5073248;28;20050;-60
2022/08/20 10:52:10;;;;;;;10.32;2.30;;;;;;;28.66;41.23;101564.38;5075143;28;20052;-69
2022/08/20 10:54:40;;;;;;;9.43;2.10;;;;;;;29.14;40.57;101554.50;5072544;28;20348;-69
2022/08/20 10:57:09;;;;;;;7.32;2.00;;;;;;;28.58;39.98;101563.69;5071683;28;20147;-69
2022/08/20 10:59:39;;;;;;;7.95;1.60;;;;;;;27.94;41.48;101565.66;5074725;28;20369;-69
2022/08/20 11:02:09;;;;;;;8.95;1.88;;;;;;;28.53;41.76;101563.47;5073284;28;20411;-69
2022/08/20 11:04:39;;;;;;;9.77;1.83;;;;;;;28.95;40.65;101565.09;5071470;28;20415;-69
2022/08/20 11:07:12;;;;;;;9.98;1.80;;;;;;;29.27;38.85;101559.13;5070464;28;20079;-69
2022/08/20 11:09:41;;;;;;;8.50;1.85;;;;;;;29.51;38.16;101563.91;5068711;28;20127;-69
2022/08/20 11:12:09;;;;;;;7.30;1.80;;;;;;;29.59;38.71;101567.47;5074565;28;20089;-69
2022/08/20 11:14:38;;;;;;;9.02;1.90;;;;;;;29.04;40.09;101567.59;5074478;28;20051;-69
2022/08/20 11:17:06;;;;;;;8.73;1.88;;;;;;;28.28;38.83;101572.09;5074791;28;20044;-70
2022/08/20 11:19:41;;;;;;;6.50;1.63;;;;;;;28.33;40.49;101583.13;5072948;28;20199;-69
2022/08/20 11:22:10;;;;;;;9.90;2.15;;;;;;;28.99;39.57;101570.94;5071773;28;20725;-67
2022/08/20 11:24:38;;;;;;;8.98;1.83;;;;;;;29.00;37.93;101570.72;5071134;28;20124;-60
2022/08/20 11:27:07;;;;;;;10.30;2.20;;;;;;;29.15;37.58;101567.81;5071432;28;20049;-69
2022/08/20 11:29:36;;;;;;;10.25;2.13;;;;;;;29.23;37.83;101574.06;5071097;28;20040;-58
2022/08/20 11:32:05;;;;;;;8.55;1.98;;;;;;;29.91;39.04;101568.47;5072041;28;20056;-58
2022/08/20 11:34:34;;;;;;;6.55;1.70;;;;;;;30.18;37.00;101569.25;5071515;28;20056;-58